Terminal Aerodrome Forecast
Issued by NWS Nashville, TN

Home | Current Version | Previous Version | Text Only | Print | Product List | Glossary On
Versions: 1 2 3 4 5 6 7 8 9 10 11 12 13 14 15 16 17 18 19 20 21 22 23 24 25 26 27
000
FTUS44 KOHX 030652 AAA
TAFBNA
TAF AMD
KBNA 030652Z 0307/0406 20003KT P6SM VCSH BKN035 OVC100
     FM031200 24006KT 5SM BR VCSH OVC025
     FM031800 23008KT P6SM VCTS BKN035CB OVC250
     FM040000 22003KT P6SM VCSH OVC035=

USA.gov is the U.S. government's official web portal to all federal, state and local government web resources and services.